createdAt,value
2022-12-03T00:00:19.144Z,57.33
2022-12-03T00:02:46.237Z,60.07
2022-12-03T00:05:13.617Z,62.03
2022-12-03T00:07:40.959Z,57.77
2022-12-03T00:10:12.898Z,60.17
2022-12-03T00:12:39.931Z,54.87
2022-12-03T00:15:10.085Z,60.50
2022-12-03T00:17:37.753Z,58.80
2022-12-03T00:20:11.675Z,56.17
2022-12-03T00:22:38.730Z,62.80
2022-12-03T00:25:06.937Z,61.27
2022-12-03T00:27:33.911Z,58.77
2022-12-03T00:30:01.220Z,63.87
2022-12-03T00:32:28.319Z,65.17
2022-12-03T00:34:55.744Z,61.43
2022-12-03T00:37:23.016Z,58.07
2022-12-03T00:39:53.081Z,64.27
2022-12-03T00:42:20.161Z,60.70
2022-12-03T00:44:47.509Z,65.73
2022-12-03T00:47:15.095Z,66.07
2022-12-03T00:49:42.510Z,62.10
2022-12-03T00:52:09.905Z,62.00
2022-12-03T00:54:53.998Z,68.57
2022-12-03T00:57:21.201Z,63.47
2022-12-03T00:59:50.918Z,60.03
2022-12-03T01:02:44.254Z,64.00
2022-12-03T01:05:11.462Z,58.30
2022-12-03T01:07:38.883Z,52.53
2022-12-03T01:10:15.896Z,68.80
2022-12-03T01:12:42.969Z,62.83
2022-12-03T01:15:13.020Z,61.60
2022-12-03T01:17:40.216Z,57.57
2022-12-03T01:20:10.407Z,60.47
2022-12-03T01:22:39.455Z,59.07
2022-12-03T01:25:10.256Z,59.77
2022-12-03T01:28:02.344Z,61.33
2022-12-03T01:31:05.847Z,57.33
2022-12-03T01:33:32.873Z,60.87
2022-12-03T01:36:07.592Z,59.47
2022-12-03T01:38:35.449Z,56.80
2022-12-03T01:41:18.917Z,53.87
2022-12-03T01:43:46.711Z,58.80
2022-12-03T01:46:22.889Z,64.60
2022-12-03T01:48:59.278Z,54.00
2022-12-03T01:51:30.516Z,59.73
2022-12-03T01:54:00.510Z,58.87
2022-12-03T01:56:28.065Z,57.97
2022-12-03T01:58:55.079Z,56.70
2022-12-03T02:01:22.210Z,53.37
2022-12-03T02:03:49.585Z,60.30
2022-12-03T02:06:33.246Z,59.33
2022-12-03T02:09:00.902Z,61.20
2022-12-03T02:11:36.885Z,60.87
2022-12-03T02:14:14.021Z,57.87
2022-12-03T02:16:42.761Z,58.50
2022-12-03T02:19:27.853Z,62.27
2022-12-03T02:22:33.104Z,60.37
2022-12-03T02:25:19.431Z,65.50
2022-12-03T02:27:48.325Z,60.33
2022-12-03T02:30:21.036Z,61.23
2022-12-03T02:32:49.632Z,65.33
2022-12-03T02:35:37.322Z,52.50
2022-12-03T02:38:28.023Z,62.23
2022-12-03T02:41:01.272Z,54.10
2022-12-03T02:43:28.662Z,61.13
2022-12-03T02:45:59.952Z,65.77
2022-12-03T02:48:34.741Z,65.00
2022-12-03T02:51:07.183Z,60.27
2022-12-03T02:53:44.963Z,65.03
2022-12-03T02:56:22.351Z,67.17
2022-12-03T02:59:01.225Z,61.33
2022-12-03T03:01:28.551Z,64.23
2022-12-03T03:03:59.455Z,67.27
2022-12-03T03:06:26.711Z,66.70
2022-12-03T03:08:57.451Z,61.43
2022-12-03T03:11:25.060Z,62.90
2022-12-03T03:16:55.949Z,68.10
2022-12-03T03:19:30.850Z,58.73
2022-12-03T03:21:58.151Z,67.57
2022-12-03T03:24:32.314Z,65.63
2022-12-03T03:27:13.112Z,61.97
2022-12-03T03:29:43.278Z,59.87
2022-12-03T03:32:10.383Z,57.53
2022-12-03T03:34:37.703Z,60.80
2022-12-03T03:37:23.436Z,63.47
2022-12-03T03:39:53.911Z,61.60
2022-12-03T03:42:21.111Z,68.50
2022-12-03T03:44:50.668Z,66.90
2022-12-03T03:47:20.474Z,63.40
2022-12-03T03:49:50.546Z,66.37
2022-12-03T03:52:22.272Z,66.73
2022-12-03T03:54:49.552Z,59.97
2022-12-03T03:57:19.473Z,65.80
2022-12-03T03:59:46.845Z,66.40
2022-12-03T04:02:24.615Z,56.50
2022-12-03T04:04:52.898Z,57.33
2022-12-03T04:07:20.672Z,68.17
2022-12-03T04:09:47.633Z,63.13
2022-12-03T04:12:40.834Z,61.80
2022-12-03T04:15:09.235Z,66.37
2022-12-03T04:17:37.001Z,62.80
2022-12-03T04:20:05.614Z,68.40
2022-12-03T04:22:41.706Z,66.40
2022-12-03T04:25:41.697Z,63.17
2022-12-03T04:28:28.228Z,65.13
2022-12-03T04:30:58.589Z,66.43
2022-12-03T04:33:44.560Z,66.80
2022-12-03T04:36:11.616Z,68.57
2022-12-03T04:38:52.153Z,64.60
2022-12-03T04:41:25.073Z,69.50
2022-12-03T04:44:10.607Z,70.57
2022-12-03T04:46:37.817Z,67.83
2022-12-03T04:49:04.957Z,68.97
2022-12-03T04:51:34.944Z,65.13
2022-12-03T04:54:05.968Z,68.10
2022-12-03T04:56:33.101Z,57.43
2022-12-03T04:59:00.132Z,67.53
2022-12-03T05:01:30.416Z,67.77
2022-12-03T05:03:58.006Z,59.33
2022-12-03T05:06:25.055Z,66.83
2022-12-03T05:08:52.444Z,64.50
2022-12-03T05:11:19.506Z,66.03
2022-12-03T05:13:46.476Z,63.03
2022-12-03T05:16:13.602Z,62.97
2022-12-03T05:18:40.723Z,66.03
2022-12-03T05:21:07.831Z,66.13
2022-12-03T05:23:34.824Z,62.93
2022-12-03T05:26:01.788Z,70.73
2022-12-03T05:28:29.082Z,65.63
2022-12-03T05:30:58.693Z,68.17
2022-12-03T05:33:25.969Z,60.97
2022-12-03T05:35:53.104Z,67.17
2022-12-03T05:38:20.767Z,71.87
2022-12-03T05:40:47.967Z,65.90
2022-12-03T05:43:14.945Z,61.50
2022-12-03T05:45:45.992Z,69.30
2022-12-03T05:48:16.771Z,65.37
2022-12-03T05:50:45.945Z,76.33
2022-12-03T05:53:15.040Z,69.10
2022-12-03T05:55:42.455Z,67.13
2022-12-03T05:58:09.863Z,58.30
2022-12-03T06:00:42.422Z,66.27
2022-12-03T06:03:10.829Z,69.60
2022-12-03T06:05:38.442Z,69.57
2022-12-03T06:08:07.587Z,68.30
2022-12-03T06:10:34.842Z,64.40
2022-12-03T06:13:03.153Z,71.27
2022-12-03T06:15:30.461Z,68.17
2022-12-03T06:17:58.144Z,69.57
2022-12-03T06:20:25.444Z,64.37
2022-12-03T06:22:52.427Z,71.87
2022-12-03T06:25:19.464Z,75.53
2022-12-03T06:27:46.533Z,67.23
2022-12-03T06:30:14.832Z,73.87
2022-12-03T06:32:42.023Z,64.73
2022-12-03T06:35:09.737Z,68.90
2022-12-03T06:37:36.816Z,66.73
2022-12-03T06:40:04.696Z,63.97
2022-12-03T06:42:31.661Z,70.43
2022-12-03T06:45:01.755Z,66.57
2022-12-03T06:47:28.711Z,75.13
2022-12-03T06:49:55.657Z,69.20
2022-12-03T06:52:22.752Z,74.00
2022-12-03T06:54:49.716Z,72.67
2022-12-03T06:57:19.394Z,71.10
2022-12-03T06:59:46.357Z,70.47
2022-12-03T07:02:13.473Z,74.90
2022-12-03T07:04:56.072Z,64.47
2022-12-03T07:07:23.467Z,69.80
2022-12-03T07:09:51.026Z,69.80
2022-12-03T07:12:18.069Z,65.53
2022-12-03T07:14:45.085Z,76.63
2022-12-03T07:17:12.044Z,71.07
2022-12-03T07:19:39.663Z,66.33
2022-12-03T07:22:06.832Z,66.47
2022-12-03T07:24:33.957Z,69.77
2022-12-03T07:27:01.122Z,59.73
2022-12-03T07:29:28.221Z,74.00
2022-12-03T07:31:55.281Z,73.73
2022-12-03T07:34:22.348Z,75.33
2022-12-03T07:36:49.501Z,73.03
2022-12-03T07:39:16.555Z,72.17
2022-12-03T07:41:43.696Z,71.57
2022-12-03T07:44:14.273Z,66.53
2022-12-03T07:47:08.586Z,73.27
2022-12-03T07:49:35.587Z,74.57
2022-12-03T07:52:02.607Z,79.43
2022-12-03T07:54:29.573Z,73.27
2022-12-03T07:57:01.110Z,72.57
2022-12-03T07:59:29.515Z,130.83
2022-12-03T08:01:56.697Z,76.30
2022-12-03T08:04:23.765Z,137.57
2022-12-03T08:06:50.743Z,84.73
2022-12-03T08:09:17.712Z,84.57
2022-12-03T08:11:48.558Z,75.83
2022-12-03T08:14:19.613Z,153.40
2022-12-03T08:16:48.273Z,78.53
2022-12-03T08:19:18.328Z,79.03
2022-12-03T08:21:45.541Z,77.03
2022-12-03T08:24:21.581Z,80.37
2022-12-03T08:26:49.831Z,68.20
2022-12-03T08:29:20.358Z,74.47
2022-12-03T08:31:55.406Z,73.00
2022-12-03T08:34:28.159Z,78.57
2022-12-03T08:37:19.592Z,74.17
2022-12-03T08:39:50.606Z,72.60
2022-12-03T08:42:48.160Z,75.47
2022-12-03T08:45:34.949Z,68.10
2022-12-03T08:48:33.032Z,72.17
2022-12-03T08:51:26.526Z,70.27
2022-12-03T08:54:04.525Z,75.03
2022-12-03T08:56:35.972Z,74.47
2022-12-03T08:59:30.897Z,71.13
2022-12-03T09:01:59.717Z,71.37
2022-12-03T09:04:45.754Z,73.10
2022-12-03T09:07:12.833Z,71.40
2022-12-03T09:09:40.180Z,69.27
2022-12-03T09:12:07.397Z,72.53
2022-12-03T09:14:34.542Z,67.03
2022-12-03T09:17:01.674Z,68.80
2022-12-03T09:19:31.064Z,72.70
2022-12-03T09:21:58.176Z,69.23
2022-12-03T09:24:25.245Z,69.93
2022-12-03T09:26:52.306Z,66.97
2022-12-03T09:29:19.387Z,72.30
2022-12-03T09:31:46.572Z,74.13
2022-12-03T09:34:13.685Z,67.43
2022-12-03T09:36:40.913Z,76.70
2022-12-03T09:39:07.914Z,112.53
2022-12-03T09:41:37.468Z,73.00
2022-12-03T09:44:05.770Z,71.93
2022-12-03T09:46:35.782Z,78.57
2022-12-03T09:49:10.777Z,93.13
2022-12-03T09:51:41.274Z,73.10
2022-12-03T09:54:10.212Z,122.27
2022-12-03T09:56:38.308Z,110.40
2022-12-03T09:59:15.173Z,120.80
2022-12-03T10:01:42.334Z,96.23
2022-12-03T10:04:09.836Z,110.77
2022-12-03T10:06:43.980Z,75.43
2022-12-03T10:09:17.488Z,86.43
2022-12-03T10:11:44.771Z,84.83
2022-12-03T10:14:14.647Z,73.53
2022-12-03T10:16:42.274Z,102.77
2022-12-03T10:19:44.937Z,77.17
2022-12-03T10:22:11.963Z,82.47
2022-12-03T10:24:39.196Z,90.00
2022-12-03T10:27:30.300Z,68.47
2022-12-03T10:30:01.171Z,68.87
2022-12-03T10:32:50.923Z,75.60
2022-12-03T10:35:45.459Z,62.83
2022-12-03T10:38:18.117Z,74.70
2022-12-03T10:40:45.986Z,64.63
2022-12-03T10:43:25.735Z,65.67
2022-12-03T10:46:16.796Z,78.97
2022-12-03T10:48:44.071Z,65.97
2022-12-03T10:51:22.722Z,72.43
2022-12-03T10:53:50.595Z,64.20
2022-12-03T10:56:36.534Z,67.90
2022-12-03T10:59:03.809Z,70.70
2022-12-03T11:01:32.257Z,83.67
2022-12-03T11:04:04.993Z,84.07
2022-12-03T11:06:34.820Z,75.53
2022-12-03T11:09:08.771Z,73.07
2022-12-03T11:11:37.632Z,139.80
2022-12-03T11:14:06.135Z,89.47
2022-12-03T11:16:42.904Z,72.50
2022-12-03T11:19:12.926Z,74.30
2022-12-03T11:22:05.940Z,71.43
2022-12-03T11:24:39.068Z,68.07
2022-12-03T11:27:12.918Z,73.77
2022-12-03T11:29:54.500Z,80.80
2022-12-03T11:32:40.359Z,74.57
2022-12-03T11:35:25.169Z,73.37
2022-12-03T11:37:52.560Z,71.53
2022-12-03T11:40:19.304Z,70.27
2022-12-03T11:42:48.593Z,69.63
2022-12-03T11:45:36.543Z,72.13
2022-12-03T11:48:14.833Z,78.97
2022-12-03T11:50:53.125Z,69.60
2022-12-03T11:53:27.263Z,81.93
2022-12-03T11:56:10.268Z,69.87
2022-12-03T11:58:42.552Z,73.43
2022-12-03T12:01:09.984Z,68.73
2022-12-03T12:03:50.721Z,82.60
2022-12-03T12:06:21.309Z,74.10
2022-12-03T12:08:51.099Z,70.77
2022-12-03T12:11:43.561Z,84.37
2022-12-03T12:14:13.697Z,79.83
2022-12-03T12:16:53.619Z,86.20
2022-12-03T12:19:41.219Z,71.27
2022-12-03T12:22:24.921Z,76.00
2022-12-03T12:25:03.316Z,79.87
2022-12-03T12:27:39.256Z,81.43
2022-12-03T12:30:19.880Z,106.50
2022-12-03T12:33:16.432Z,76.53
2022-12-03T12:35:43.437Z,83.27
2022-12-03T12:38:24.192Z,90.27
2022-12-03T12:40:51.324Z,73.70
2022-12-03T12:43:30.827Z,102.90
2022-12-03T12:46:38.670Z,106.53
2022-12-03T12:48:59.553Z,103.80
2022-12-03T12:51:27.060Z,68.40
2022-12-03T12:53:54.093Z,108.90
2022-12-03T12:56:31.945Z,88.60
2022-12-03T12:59:16.251Z,111.63
2022-12-03T13:01:46.345Z,103.70
2022-12-03T13:04:24.028Z,74.40
2022-12-03T13:06:54.664Z,90.30
2022-12-03T13:09:26.026Z,81.40
2022-12-03T13:12:03.793Z,106.57
2022-12-03T13:14:36.533Z,82.83
2022-12-03T13:17:24.208Z,82.17
2022-12-03T13:20:00.432Z,79.10
2022-12-03T13:22:32.301Z,80.37
2022-12-03T13:25:58.170Z,73.17
2022-12-03T13:28:24.348Z,76.07
2022-12-03T13:30:51.525Z,75.80
2022-12-03T13:33:31.147Z,79.07
2022-12-03T13:35:58.277Z,77.57
2022-12-03T13:38:25.840Z,115.80
2022-12-03T13:41:02.517Z,81.23
2022-12-03T13:43:32.764Z,76.50
2022-12-03T13:46:00.516Z,80.73
2022-12-03T13:48:36.643Z,119.77
2022-12-03T13:51:32.795Z,77.60
2022-12-03T13:54:00.472Z,78.00
2022-12-03T13:56:32.647Z,96.43
2022-12-03T13:59:01.649Z,73.70
2022-12-03T14:01:29.781Z,96.63
2022-12-03T14:03:57.220Z,74.40
2022-12-03T14:06:24.601Z,83.30
2022-12-03T14:08:51.635Z,86.27
2022-12-03T14:11:37.159Z,78.73
2022-12-03T14:14:04.205Z,78.00
2022-12-03T14:16:31.461Z,70.30
2022-12-03T14:18:58.480Z,71.43
2022-12-03T14:21:26.054Z,74.83
2022-12-03T14:23:53.070Z,63.20
2022-12-03T14:26:20.049Z,73.10
2022-12-03T14:28:47.004Z,72.07
2022-12-03T14:31:14.058Z,87.40
2022-12-03T14:33:41.093Z,72.27
2022-12-03T14:36:08.581Z,80.30
2022-12-03T14:38:35.555Z,72.20
2022-12-03T14:41:02.711Z,69.87
2022-12-03T14:43:29.940Z,67.10
2022-12-03T14:45:56.948Z,77.97
2022-12-03T14:48:23.958Z,68.97
2022-12-03T14:50:50.925Z,69.63
2022-12-03T14:53:20.521Z,75.53
2022-12-03T14:55:50.213Z,70.10
2022-12-03T14:58:17.497Z,76.10
2022-12-03T15:00:44.449Z,70.03
2022-12-03T15:03:11.456Z,66.37
2022-12-03T15:05:38.534Z,64.60
2022-12-03T15:08:05.697Z,65.90
2022-12-03T15:10:35.673Z,64.30
2022-12-03T15:13:02.654Z,65.57
2022-12-03T15:15:29.786Z,66.10
2022-12-03T15:17:56.760Z,58.37
2022-12-03T15:20:23.747Z,61.20
2022-12-03T15:22:50.744Z,63.47
2022-12-03T15:25:24.440Z,62.47
2022-12-03T15:27:51.755Z,59.93
2022-12-03T15:30:20.580Z,58.17
2022-12-03T15:32:47.615Z,54.83
2022-12-03T15:35:18.346Z,60.70
2022-12-03T15:37:45.933Z,70.77
2022-12-03T15:40:13.849Z,56.60
2022-12-03T15:42:40.996Z,60.63
2022-12-03T15:45:14.821Z,56.33
2022-12-03T15:47:42.246Z,66.67
2022-12-03T15:50:10.216Z,59.77
2022-12-03T15:52:37.298Z,60.80
2022-12-03T15:55:05.049Z,52.97
2022-12-03T15:57:32.144Z,62.33
2022-12-03T15:59:59.215Z,61.70
2022-12-03T16:02:26.940Z,62.20
2022-12-03T16:04:54.002Z,64.80
2022-12-03T16:07:21.046Z,61.60
2022-12-03T16:09:48.192Z,62.97
2022-12-03T16:12:15.449Z,69.87
2022-12-03T16:14:42.449Z,93.47
2022-12-03T16:17:09.513Z,71.03
2022-12-03T16:19:36.606Z,66.43
2022-12-03T16:22:03.864Z,71.13
2022-12-03T16:24:30.838Z,66.90
2022-12-03T16:26:57.829Z,79.30
2022-12-03T16:29:24.900Z,68.53
2022-12-03T16:31:52.223Z,72.77
2022-12-03T16:34:19.285Z,63.60
2022-12-03T16:36:46.424Z,63.77
2022-12-03T16:39:13.772Z,66.63
2022-12-03T16:41:40.747Z,63.87
2022-12-03T16:44:08.198Z,65.57
2022-12-03T16:46:35.233Z,68.27
2022-12-03T16:49:03.767Z,69.47
2022-12-03T16:51:30.817Z,75.40
2022-12-03T16:53:57.770Z,67.33
2022-12-03T16:56:24.747Z,67.77
2022-12-03T16:58:51.744Z,69.97
2022-12-03T17:01:18.881Z,68.13
2022-12-03T17:03:45.980Z,67.70
2022-12-03T17:06:13.132Z,66.10
2022-12-03T17:08:44.399Z,66.87
2022-12-03T17:11:14.482Z,72.60
2022-12-03T17:13:41.788Z,76.13
2022-12-03T17:16:09.123Z,64.13
2022-12-03T17:18:36.140Z,82.83
2022-12-03T17:21:03.160Z,68.13
2022-12-03T17:23:30.151Z,82.00
2022-12-03T17:25:57.186Z,79.83
2022-12-03T17:28:24.211Z,71.70
2022-12-03T17:30:51.269Z,79.27
2022-12-03T17:33:18.341Z,87.80
2022-12-03T17:35:46.502Z,100.30
2022-12-03T17:38:13.543Z,156.43
2022-12-03T17:40:43.388Z,90.13
2022-12-03T17:43:10.341Z,102.63
2022-12-03T17:45:37.359Z,73.33
2022-12-03T17:48:04.733Z,93.07
2022-12-03T17:50:31.722Z,97.77
2022-12-03T17:52:58.724Z,74.53
2022-12-03T17:55:34.651Z,99.03
2022-12-03T17:58:05.425Z,98.30
2022-12-03T18:00:33.264Z,80.10
2022-12-03T18:03:00.432Z,88.67
2022-12-03T18:05:27.442Z,83.90
2022-12-03T18:07:54.501Z,91.90
2022-12-03T18:10:22.574Z,79.37
2022-12-03T18:12:49.557Z,91.83
2022-12-03T18:15:16.649Z,113.90
2022-12-03T18:17:43.643Z,89.47
2022-12-03T18:20:10.747Z,85.60
2022-12-03T18:22:38.048Z,83.13
2022-12-03T18:25:06.662Z,83.17
2022-12-03T18:27:34.118Z,89.20
2022-12-03T18:30:01.207Z,88.80
2022-12-03T18:32:29.700Z,91.83
2022-12-03T18:34:58.152Z,84.20
2022-12-03T18:37:29.175Z,79.63
2022-12-03T18:39:57.716Z,83.47
2022-12-03T18:42:25.981Z,79.03
2022-12-03T18:44:56.208Z,85.17
2022-12-03T18:47:28.844Z,78.33
2022-12-03T18:49:57.048Z,88.70
2022-12-03T18:52:25.061Z,77.47
2022-12-03T18:54:52.871Z,86.97
2022-12-03T18:57:19.933Z,86.83
2022-12-03T18:59:46.951Z,74.83
2022-12-03T19:05:08.901Z,91.03
2022-12-03T19:07:36.029Z,89.63
2022-12-03T19:10:03.766Z,94.47
2022-12-03T19:12:31.164Z,99.67
2022-12-03T19:14:58.202Z,92.10
2022-12-03T19:17:26.990Z,129.10
2022-12-03T19:19:54.972Z,139.80
2022-12-03T19:22:23.318Z,114.70
2022-12-03T19:24:50.801Z,101.07
2022-12-03T19:27:18.011Z,89.70
2022-12-03T19:29:48.745Z,86.30
2022-12-03T19:32:15.750Z,89.67
2022-12-03T19:34:42.784Z,93.27
2022-12-03T19:37:09.790Z,89.10
2022-12-03T19:39:36.841Z,90.53
2022-12-03T19:42:04.163Z,92.77
2022-12-03T19:44:31.249Z,81.90
2022-12-03T19:46:58.229Z,85.87
2022-12-03T19:49:25.297Z,86.77
2022-12-03T19:51:52.386Z,97.07
2022-12-03T19:54:19.618Z,81.80
2022-12-03T19:56:46.642Z,96.07
2022-12-03T19:59:14.219Z,86.33
2022-12-03T20:01:43.226Z,83.20
2022-12-03T20:04:11.941Z,85.67
2022-12-03T20:06:41.794Z,89.87
2022-12-03T20:09:17.527Z,84.63
2022-12-03T20:11:45.779Z,90.50
2022-12-03T20:14:16.774Z,77.93
2022-12-03T20:16:45.252Z,78.17
2022-12-03T20:19:16.089Z,95.17
2022-12-03T20:21:44.836Z,90.30
2022-12-03T20:24:17.088Z,82.47
2022-12-03T20:26:44.447Z,87.53
2022-12-03T20:29:11.916Z,91.33
2022-12-03T20:31:39.164Z,91.00
2022-12-03T20:34:07.083Z,75.93
2022-12-03T20:36:37.020Z,97.10
2022-12-03T20:39:07.924Z,85.73
2022-12-03T20:41:36.854Z,91.03
2022-12-03T20:44:07.291Z,102.43
2022-12-03T20:46:34.807Z,109.53
2022-12-03T20:49:01.955Z,89.43
2022-12-03T20:51:31.588Z,86.47
2022-12-03T20:54:00.674Z,94.60
2022-12-03T20:56:35.618Z,86.17
2022-12-03T20:59:07.545Z,86.43
2022-12-03T21:01:36.018Z,100.93
2022-12-03T21:04:04.653Z,92.53
2022-12-03T21:06:34.183Z,78.60
2022-12-03T21:09:02.481Z,77.50
2022-12-03T21:11:32.066Z,78.37
2022-12-03T21:14:00.620Z,88.83
2022-12-03T21:19:20.917Z,76.70
2022-12-03T21:21:48.537Z,74.40
2022-12-03T21:24:15.598Z,81.47
2022-12-03T21:26:42.718Z,81.40
2022-12-03T21:29:09.824Z,78.13
2022-12-03T21:31:38.345Z,78.63
2022-12-03T21:34:05.411Z,84.60
2022-12-03T21:36:32.516Z,78.70
2022-12-03T21:38:59.606Z,85.30
2022-12-03T21:41:26.824Z,83.27
2022-12-03T21:43:53.889Z,77.33
2022-12-03T21:47:10.159Z,73.57
2022-12-03T21:49:08.104Z,77.07
2022-12-03T21:51:35.195Z,91.17
2022-12-03T21:54:02.353Z,79.27
2022-12-03T21:56:31.977Z,83.50
2022-12-03T21:58:59.004Z,78.80
2022-12-03T22:01:26.315Z,83.27
2022-12-03T22:03:53.469Z,82.27
2022-12-03T22:06:21.232Z,80.30
2022-12-03T22:08:49.244Z,78.30
2022-12-03T22:11:23.578Z,86.83
2022-12-03T22:13:51.374Z,82.33
2022-12-03T22:16:21.476Z,80.03
2022-12-03T22:18:48.854Z,81.40
2022-12-03T22:21:20.345Z,63.53
2022-12-03T22:23:47.454Z,82.20
2022-12-03T22:26:18.409Z,83.20
2022-12-03T22:28:50.078Z,77.30
2022-12-03T22:31:18.685Z,89.53
2022-12-03T22:33:48.289Z,85.07
2022-12-03T22:36:21.647Z,84.10
2022-12-03T22:38:50.817Z,81.20
2022-12-03T22:41:20.268Z,87.47
2022-12-03T22:43:48.621Z,86.40
2022-12-03T22:46:17.192Z,84.17
2022-12-03T22:48:46.620Z,81.47
2022-12-03T22:51:24.545Z,83.83
2022-12-03T22:53:58.163Z,85.67
2022-12-03T22:56:27.671Z,81.87
2022-12-03T22:58:55.582Z,87.87
2022-12-03T23:01:31.408Z,95.87
2022-12-03T23:03:59.210Z,89.00
2022-12-03T23:06:27.622Z,83.77
2022-12-03T23:08:55.648Z,89.33
2022-12-03T23:11:22.843Z,91.50
2022-12-03T23:13:50.368Z,93.60
2022-12-03T23:16:26.688Z,96.43
2022-12-03T23:18:54.321Z,91.60
2022-12-03T23:21:29.775Z,102.97
2022-12-03T23:23:59.909Z,92.03
2022-12-03T23:26:28.275Z,94.93
2022-12-03T23:28:55.556Z,90.30
2022-12-03T23:31:31.299Z,96.43
2022-12-03T23:33:59.271Z,94.10
2022-12-03T23:36:30.126Z,99.73
2022-12-03T23:38:57.325Z,99.27
2022-12-03T23:41:25.214Z,100.17
2022-12-03T23:43:52.875Z,93.07
2022-12-03T23:46:27.326Z,86.17
2022-12-03T23:48:55.037Z,98.97
2022-12-03T23:51:24.585Z,98.00
2022-12-03T23:53:54.087Z,91.53
2022-12-03T23:56:27.579Z,99.47
2022-12-03T23:58:54.763Z,98.10
